sensor_id;sensor_type;location;lat;lon;timestamp;temperature;humidity
70154;DHT22;57519;51.494;-2.626;2023-02-15T00:01:07;5.13;81.12
70154;DHT22;57519;51.494;-2.626;2023-02-15T00:03:33;5.17;81.12
70154;DHT22;57519;51.494;-2.626;2023-02-15T00:05:59;5.16;81.07
70154;DHT22;57519;51.494;-2.626;2023-02-15T00:08:24;5.10;81.09
70154;DHT22;57519;51.494;-2.626;2023-02-15T00:10:49;4.97;81.52
70154;DHT22;57519;51.494;-2.626;2023-02-15T00:13:15;4.89;81.81
70154;DHT22;57519;51.494;-2.626;2023-02-15T00:15:40;4.80;82.14
70154;DHT22;57519;51.494;-2.626;2023-02-15T00:18:06;4.78;82.46
70154;DHT22;57519;51.494;-2.626;2023-02-15T00:20:31;4.64;82.55
70154;DHT22;57519;51.494;-2.626;2023-02-15T00:22:56;4.59;82.79
70154;DHT22;57519;51.494;-2.626;2023-02-15T00:25:22;4.48;82.96
70154;DHT22;57519;51.494;-2.626;2023-02-15T00:27:47;4.38;83.37
70154;DHT22;57519;51.494;-2.626;2023-02-15T00:30:13;4.31;83.54
70154;DHT22;57519;51.494;-2.626;2023-02-15T00:32:38;4.20;83.83
70154;DHT22;57519;51.494;-2.626;2023-02-15T00:35:04;4.14;84.18
70154;DHT22;57519;51.494;-2.626;2023-02-15T00:37:30;4.00;84.38
70154;DHT22;57519;51.494;-2.626;2023-02-15T00:39:55;3.93;84.71
70154;DHT22;57519;51.494;-2.626;2023-02-15T00:42:20;3.76;84.68
70154;DHT22;57519;51.494;-2.626;2023-02-15T00:44:46;3.62;85.05
70154;DHT22;57519;51.494;-2.626;2023-02-15T00:47:11;3.54;85.59
70154;DHT22;57519;51.494;-2.626;2023-02-15T00:49:36;3.51;86.04
70154;DHT22;57519;51.494;-2.626;2023-02-15T00:52:02;3.50;86.04
70154;DHT22;57519;51.494;-2.626;2023-02-15T00:54:27;3.46;86.18
70154;DHT22;57519;51.494;-2.626;2023-02-15T00:56:53;3.50;86.51
70154;DHT22;57519;51.494;-2.626;2023-02-15T00:59:18;3.54;86.50
70154;DHT22;57519;51.494;-2.626;2023-02-15T01:01:43;3.52;86.27
70154;DHT22;57519;51.494;-2.626;2023-02-15T01:04:09;3.48;86.44
70154;DHT22;57519;51.494;-2.626;2023-02-15T01:06:34;3.50;86.46
70154;DHT22;57519;51.494;-2.626;2023-02-15T01:09:00;3.48;86.35
70154;DHT22;57519;51.494;-2.626;2023-02-15T01:11:25;3.38;86.19
70154;DHT22;57519;51.494;-2.626;2023-02-15T01:13:53;3.41;87.16
70154;DHT22;57519;51.494;-2.626;2023-02-15T01:16:21;3.30;86.73
70154;DHT22;57519;51.494;-2.626;2023-02-15T01:18:46;3.18;86.81
70154;DHT22;57519;51.494;-2.626;2023-02-15T01:21:14;3.13;86.83
70154;DHT22;57519;51.494;-2.626;2023-02-15T01:23:41;3.03;87.01
70154;DHT22;57519;51.494;-2.626;2023-02-15T01:26:07;3.04;87.07
70154;DHT22;57519;51.494;-2.626;2023-02-15T01:28:33;2.92;87.30
70154;DHT22;57519;51.494;-2.626;2023-02-15T01:30:59;2.92;87.73
70154;DHT22;57519;51.494;-2.626;2023-02-15T01:33:29;2.86;88.25
70154;DHT22;57519;51.494;-2.626;2023-02-15T01:35:57;2.82;88.06
70154;DHT22;57519;51.494;-2.626;2023-02-15T01:38:23;2.77;88.16
70154;DHT22;57519;51.494;-2.626;2023-02-15T01:40:52;2.76;88.15
70154;DHT22;57519;51.494;-2.626;2023-02-15T01:43:19;2.82;88.12
70154;DHT22;57519;51.494;-2.626;2023-02-15T01:45:47;2.79;88.52
70154;DHT22;57519;51.494;-2.626;2023-02-15T01:48:22;2.79;88.52
70154;DHT22;57519;51.494;-2.626;2023-02-15T01:50:54;2.79;88.47
70154;DHT22;57519;51.494;-2.626;2023-02-15T01:53:28;2.76;88.43
70154;DHT22;57519;51.494;-2.626;2023-02-15T01:55:57;2.79;88.73
70154;DHT22;57519;51.494;-2.626;2023-02-15T01:58:26;2.79;89.33
70154;DHT22;57519;51.494;-2.626;2023-02-15T02:00:53;2.79;88.96
70154;DHT22;57519;51.494;-2.626;2023-02-15T02:06:14;2.79;88.80
70154;DHT22;57519;51.494;-2.626;2023-02-15T02:08:40;2.76;88.73
70154;DHT22;57519;51.494;-2.626;2023-02-15T02:11:11;2.80;88.80
70154;DHT22;57519;51.494;-2.626;2023-02-15T02:13:37;2.69;88.72
70154;DHT22;57519;51.494;-2.626;2023-02-15T02:25:12;2.80;88.79
70154;DHT22;57519;51.494;-2.626;2023-02-15T02:27:53;2.77;88.87
70154;DHT22;57519;51.494;-2.626;2023-02-15T02:30:54;2.96;89.82
70154;DHT22;57519;51.494;-2.626;2023-02-15T02:36:14;2.93;88.92
70154;DHT22;57519;51.494;-2.626;2023-02-15T02:38:58;2.89;88.69
70154;DHT22;57519;51.494;-2.626;2023-02-15T02:41:38;2.80;88.64
70154;DHT22;57519;51.494;-2.626;2023-02-15T02:52:01;2.71;88.87
70154;DHT22;57519;51.494;-2.626;2023-02-15T02:54:27;2.69;88.68
70154;DHT22;57519;51.494;-2.626;2023-02-15T02:56:54;2.73;88.92
70154;DHT22;57519;51.494;-2.626;2023-02-15T02:59:31;2.72;88.95
70154;DHT22;57519;51.494;-2.626;2023-02-15T03:02:05;2.79;88.86
70154;DHT22;57519;51.494;-2.626;2023-02-15T03:04:41;2.77;88.76
70154;DHT22;57519;51.494;-2.626;2023-02-15T03:07:10;2.71;88.98
70154;DHT22;57519;51.494;-2.626;2023-02-15T03:09:44;2.56;88.98
70154;DHT22;57519;51.494;-2.626;2023-02-15T03:12:20;2.50;89.72
70154;DHT22;57519;51.494;-2.626;2023-02-15T03:14:51;2.56;90.34
70154;DHT22;57519;51.494;-2.626;2023-02-15T03:17:19;2.57;90.19
70154;DHT22;57519;51.494;-2.626;2023-02-15T03:19:47;2.67;90.39
70154;DHT22;57519;51.494;-2.626;2023-02-15T03:22:20;2.76;90.19
70154;DHT22;57519;51.494;-2.626;2023-02-15T03:24:48;2.82;90.27
70154;DHT22;57519;51.494;-2.626;2023-02-15T03:27:19;2.97;90.59
70154;DHT22;57519;51.494;-2.626;2023-02-15T03:29:48;3.03;90.45
70154;DHT22;57519;51.494;-2.626;2023-02-15T03:32:15;3.32;92.15
70154;DHT22;57519;51.494;-2.626;2023-02-15T03:34:42;3.35;91.55
70154;DHT22;57519;51.494;-2.626;2023-02-15T03:37:13;3.45;91.61
70154;DHT22;57519;51.494;-2.626;2023-02-15T03:40:08;3.58;91.22
70154;DHT22;57519;51.494;-2.626;2023-02-15T03:45:33;3.55;90.55
70154;DHT22;57519;51.494;-2.626;2023-02-15T03:48:01;3.75;91.41
70154;DHT22;57519;51.494;-2.626;2023-02-15T03:50:30;3.76;91.37
70154;DHT22;57519;51.494;-2.626;2023-02-15T03:53:17;3.83;90.83
70154;DHT22;57519;51.494;-2.626;2023-02-15T03:55:49;3.78;90.49
70154;DHT22;57519;51.494;-2.626;2023-02-15T03:58:15;3.79;90.78
70154;DHT22;57519;51.494;-2.626;2023-02-15T04:01:04;3.79;90.74
70154;DHT22;57519;51.494;-2.626;2023-02-15T04:03:57;3.52;90.04
70154;DHT22;57519;51.494;-2.626;2023-02-15T04:06:24;3.61;90.66
70154;DHT22;57519;51.494;-2.626;2023-02-15T04:08:49;3.44;90.12
70154;DHT22;57519;51.494;-2.626;2023-02-15T04:11:33;3.35;90.35
70154;DHT22;57519;51.494;-2.626;2023-02-15T04:13:59;3.41;90.85
70154;DHT22;57519;51.494;-2.626;2023-02-15T04:16:44;3.25;90.67
70154;DHT22;57519;51.494;-2.626;2023-02-15T04:19:09;3.04;90.65
70154;DHT22;57519;51.494;-2.626;2023-02-15T04:21:53;2.96;91.61
70154;DHT22;57519;51.494;-2.626;2023-02-15T04:24:37;2.93;91.49
70154;DHT22;57519;51.494;-2.626;2023-02-15T04:27:21;2.87;91.55
70154;DHT22;57519;51.494;-2.626;2023-02-15T04:29:46;2.84;91.58
70154;DHT22;57519;51.494;-2.626;2023-02-15T04:32:15;2.80;91.68
70154;DHT22;57519;51.494;-2.626;2023-02-15T04:37:05;2.94;92.10
70154;DHT22;57519;51.494;-2.626;2023-02-15T04:39:31;3.00;92.05
70154;DHT22;57519;51.494;-2.626;2023-02-15T04:41:57;2.93;91.91
70154;DHT22;57519;51.494;-2.626;2023-02-15T04:44:22;2.90;91.86
70154;DHT22;57519;51.494;-2.626;2023-02-15T04:46:48;2.87;92.25
70154;DHT22;57519;51.494;-2.626;2023-02-15T04:49:13;2.87;92.67
70154;DHT22;57519;51.494;-2.626;2023-02-15T04:51:39;2.96;92.98
70154;DHT22;57519;51.494;-2.626;2023-02-15T04:54:04;2.96;92.72
70154;DHT22;57519;51.494;-2.626;2023-02-15T04:56:30;2.97;92.70
70154;DHT22;57519;51.494;-2.626;2023-02-15T04:58:56;3.11;92.90
70154;DHT22;57519;51.494;-2.626;2023-02-15T05:01:21;3.38;93.28
70154;DHT22;57519;51.494;-2.626;2023-02-15T05:03:47;3.70;93.45
70154;DHT22;57519;51.494;-2.626;2023-02-15T05:06:12;3.76;92.88
70154;DHT22;57519;51.494;-2.626;2023-02-15T05:08:38;3.61;91.97
70154;DHT22;57519;51.494;-2.626;2023-02-15T05:11:03;3.56;91.87
70154;DHT22;57519;51.494;-2.626;2023-02-15T05:13:28;3.38;91.82
70154;DHT22;57519;51.494;-2.626;2023-02-15T05:15:54;3.31;92.12
70154;DHT22;57519;51.494;-2.626;2023-02-15T05:18:21;3.24;92.22
70154;DHT22;57519;51.494;-2.626;2023-02-15T05:20:46;3.11;91.91
70154;DHT22;57519;51.494;-2.626;2023-02-15T05:23:12;3.05;91.79
70154;DHT22;57519;51.494;-2.626;2023-02-15T05:25:38;3.07;91.77
70154;DHT22;57519;51.494;-2.626;2023-02-15T05:28:23;3.04;91.62
70154;DHT22;57519;51.494;-2.626;2023-02-15T05:30:51;2.99;91.39
70154;DHT22;57519;51.494;-2.626;2023-02-15T05:33:23;2.86;91.38
70154;DHT22;57519;51.494;-2.626;2023-02-15T05:35:49;2.80;91.61
70154;DHT22;57519;51.494;-2.626;2023-02-15T05:38:14;2.76;91.84
70154;DHT22;57519;51.494;-2.626;2023-02-15T05:40:39;2.87;92.66
70154;DHT22;57519;51.494;-2.626;2023-02-15T05:43:05;2.80;91.95
70154;DHT22;57519;51.494;-2.626;2023-02-15T05:45:30;2.69;91.64
70154;DHT22;57519;51.494;-2.626;2023-02-15T05:47:56;2.62;91.40
70154;DHT22;57519;51.494;-2.626;2023-02-15T05:50:23;2.60;91.55
70154;DHT22;57519;51.494;-2.626;2023-02-15T05:52:48;2.52;91.39
70154;DHT22;57519;51.494;-2.626;2023-02-15T05:55:14;2.62;92.41
70154;DHT22;57519;51.494;-2.626;2023-02-15T05:57:39;2.62;92.07
70154;DHT22;57519;51.494;-2.626;2023-02-15T06:00:05;2.56;91.93
70154;DHT22;57519;51.494;-2.626;2023-02-15T06:02:35;2.52;91.90
70154;DHT22;57519;51.494;-2.626;2023-02-15T06:05:00;2.48;92.16
70154;DHT22;57519;51.494;-2.626;2023-02-15T06:07:26;2.42;91.97
70154;DHT22;57519;51.494;-2.626;2023-02-15T06:09:51;2.31;91.74
70154;DHT22;57519;51.494;-2.626;2023-02-15T06:12:16;2.21;91.72
70154;DHT22;57519;51.494;-2.626;2023-02-15T06:14:42;2.14;92.44
70154;DHT22;57519;51.494;-2.626;2023-02-15T06:17:07;2.18;92.53
70154;DHT22;57519;51.494;-2.626;2023-02-15T06:19:33;2.11;92.35
70154;DHT22;57519;51.494;-2.626;2023-02-15T06:21:58;2.17;92.56
70154;DHT22;57519;51.494;-2.626;2023-02-15T06:24:23;2.14;92.54
70154;DHT22;57519;51.494;-2.626;2023-02-15T06:26:49;2.17;92.48
70154;DHT22;57519;51.494;-2.626;2023-02-15T06:29:14;2.14;92.29
70154;DHT22;57519;51.494;-2.626;2023-02-15T06:31:40;2.11;92.37
70154;DHT22;57519;51.494;-2.626;2023-02-15T06:34:05;2.25;93.26
70154;DHT22;57519;51.494;-2.626;2023-02-15T06:36:31;2.21;92.77
70154;DHT22;57519;51.494;-2.626;2023-02-15T06:38:57;2.18;92.61
70154;DHT22;57519;51.494;-2.626;2023-02-15T06:41:23;2.24;92.88
70154;DHT22;57519;51.494;-2.626;2023-02-15T06:43:49;2.25;92.75
70154;DHT22;57519;51.494;-2.626;2023-02-15T06:46:14;2.25;92.85
70154;DHT22;57519;51.494;-2.626;2023-02-15T06:48:40;2.14;92.53
70154;DHT22;57519;51.494;-2.626;2023-02-15T06:51:05;2.03;92.64
70154;DHT22;57519;51.494;-2.626;2023-02-15T06:53:31;1.98;92.71
70154;DHT22;57519;51.494;-2.626;2023-02-15T06:56:01;2.27;93.83
70154;DHT22;57519;51.494;-2.626;2023-02-15T06:58:28;2.31;93.68
70154;DHT22;57519;51.494;-2.626;2023-02-15T07:00:53;2.71;94.24
70154;DHT22;57519;51.494;-2.626;2023-02-15T07:03:18;2.89;94.40
70154;DHT22;57519;51.494;-2.626;2023-02-15T07:05:44;2.94;94.28
70154;DHT22;57519;51.494;-2.626;2023-02-15T07:08:10;2.79;93.63
70154;DHT22;57519;51.494;-2.626;2023-02-15T07:10:36;2.60;92.97
70154;DHT22;57519;51.494;-2.626;2023-02-15T07:13:01;2.59;93.31
70154;DHT22;57519;51.494;-2.626;2023-02-15T07:15:27;2.62;93.40
70154;DHT22;57519;51.494;-2.626;2023-02-15T07:17:52;2.65;93.20
70154;DHT22;57519;51.494;-2.626;2023-02-15T07:20:22;2.63;92.94
70154;DHT22;57519;51.494;-2.626;2023-02-15T07:22:48;2.63;92.69
70154;DHT22;57519;51.494;-2.626;2023-02-15T07:25:14;2.69;92.80
70154;DHT22;57519;51.494;-2.626;2023-02-15T07:27:39;2.60;92.46
70154;DHT22;57519;51.494;-2.626;2023-02-15T07:30:06;2.53;92.29
70154;DHT22;57519;51.494;-2.626;2023-02-15T07:32:33;2.59;92.57
70154;DHT22;57519;51.494;-2.626;2023-02-15T07:34:59;2.53;92.36
70154;DHT22;57519;51.494;-2.626;2023-02-15T07:37:25;2.62;92.45
70154;DHT22;57519;51.494;-2.626;2023-02-15T07:39:51;2.69;92.63
70154;DHT22;57519;51.494;-2.626;2023-02-15T07:42:17;2.65;92.38
70154;DHT22;57519;51.494;-2.626;2023-02-15T07:44:45;2.65;92.48
70154;DHT22;57519;51.494;-2.626;2023-02-15T07:47:10;2.73;93.18
70154;DHT22;57519;51.494;-2.626;2023-02-15T07:49:37;2.94;93.98
70154;DHT22;57519;51.494;-2.626;2023-02-15T07:52:03;2.94;93.98
70154;DHT22;57519;51.494;-2.626;2023-02-15T07:54:29;2.92;93.57
70154;DHT22;57519;51.494;-2.626;2023-02-15T07:56:54;2.84;93.01
70154;DHT22;57519;51.494;-2.626;2023-02-15T07:59:19;2.84;92.98
70154;DHT22;57519;51.494;-2.626;2023-02-15T08:01:45;2.87;93.23
70154;DHT22;57519;51.494;-2.626;2023-02-15T08:04:10;3.05;93.70
70154;DHT22;57519;51.494;-2.626;2023-02-15T08:06:37;3.27;94.04
70154;DHT22;57519;51.494;-2.626;2023-02-15T08:09:05;3.28;93.78
70154;DHT22;57519;51.494;-2.626;2023-02-15T08:11:33;3.25;93.44
70154;DHT22;57519;51.494;-2.626;2023-02-15T08:14:06;3.25;93.28
70154;DHT22;57519;51.494;-2.626;2023-02-15T08:16:46;3.30;93.22
70154;DHT22;57519;51.494;-2.626;2023-02-15T08:19:28;3.31;93.01
70154;DHT22;57519;51.494;-2.626;2023-02-15T08:22:05;3.35;92.78
70154;DHT22;57519;51.494;-2.626;2023-02-15T08:24:35;3.41;92.78
70154;DHT22;57519;51.494;-2.626;2023-02-15T08:27:02;3.48;92.96
70154;DHT22;57519;51.494;-2.626;2023-02-15T08:29:29;3.55;92.89
70154;DHT22;57519;51.494;-2.626;2023-02-15T08:32:01;3.54;93.08
70154;DHT22;57519;51.494;-2.626;2023-02-15T08:34:29;3.79;93.73
70154;DHT22;57519;51.494;-2.626;2023-02-15T08:36:54;4.04;94.16
70154;DHT22;57519;51.494;-2.626;2023-02-15T08:39:20;4.06;93.67
70154;DHT22;57519;51.494;-2.626;2023-02-15T08:41:47;4.13;93.73
70154;DHT22;57519;51.494;-2.626;2023-02-15T08:44:15;4.21;93.67
70154;DHT22;57519;51.494;-2.626;2023-02-15T08:46:46;4.30;93.70
70154;DHT22;57519;51.494;-2.626;2023-02-15T08:49:14;4.36;93.64
70154;DHT22;57519;51.494;-2.626;2023-02-15T08:51:40;4.54;93.73
70154;DHT22;57519;51.494;-2.626;2023-02-15T08:54:08;4.57;93.84
70154;DHT22;57519;51.494;-2.626;2023-02-15T08:56:39;4.66;93.75
70154;DHT22;57519;51.494;-2.626;2023-02-15T08:59:06;4.85;94.02
70154;DHT22;57519;51.494;-2.626;2023-02-15T09:01:33;5.14;94.29
70154;DHT22;57519;51.494;-2.626;2023-02-15T09:04:01;5.23;94.20
70154;DHT22;57519;51.494;-2.626;2023-02-15T09:06:27;5.27;94.04
70154;DHT22;57519;51.494;-2.626;2023-02-15T09:08:54;5.28;93.64
70154;DHT22;57519;51.494;-2.626;2023-02-15T09:11:24;5.55;93.89
70154;DHT22;57519;51.494;-2.626;2023-02-15T09:13:56;5.61;93.75
70154;DHT22;57519;51.494;-2.626;2023-02-15T09:16:24;5.68;93.57
70154;DHT22;57519;51.494;-2.626;2023-02-15T09:18:50;5.86;93.65
70154;DHT22;57519;51.494;-2.626;2023-02-15T09:21:18;6.12;93.82
70154;DHT22;57519;51.494;-2.626;2023-02-15T09:23:46;6.40;93.83
70154;DHT22;57519;51.494;-2.626;2023-02-15T09:26:17;6.65;93.69
70154;DHT22;57519;51.494;-2.626;2023-02-15T09:28:43;6.88;93.43
70154;DHT22;57519;51.494;-2.626;2023-02-15T09:31:20;7.13;93.19
70154;DHT22;57519;51.494;-2.626;2023-02-15T09:33:47;7.40;92.56
70154;DHT22;57519;51.494;-2.626;2023-02-15T09:38:44;7.88;91.44
70154;DHT22;57519;51.494;-2.626;2023-02-15T09:41:36;8.10;90.89
70154;DHT22;57519;51.494;-2.626;2023-02-15T09:50:09;8.71;88.52
70154;DHT22;57519;51.494;-2.626;2023-02-15T09:58:45;9.02;87.26
70154;DHT22;57519;51.494;-2.626;2023-02-15T10:12:44;9.43;85.90
70154;DHT22;57519;51.494;-2.626;2023-02-15T10:18:35;9.54;85.49
70154;DHT22;57519;51.494;-2.626;2023-02-15T10:26:48;9.80;84.32
70154;DHT22;57519;51.494;-2.626;2023-02-15T10:32:16;9.93;83.81
70154;DHT22;57519;51.494;-2.626;2023-02-15T10:37:26;10.05;82.99
70154;DHT22;57519;51.494;-2.626;2023-02-15T10:40:20;10.18;82.42
70154;DHT22;57519;51.494;-2.626;2023-02-15T10:50:57;10.46;81.98
70154;DHT22;57519;51.494;-2.626;2023-02-15T10:59:21;10.52;81.74
70154;DHT22;57519;51.494;-2.626;2023-02-15T11:01:51;10.55;81.86
70154;DHT22;57519;51.494;-2.626;2023-02-15T11:04:37;10.60;81.76
70154;DHT22;57519;51.494;-2.626;2023-02-15T11:07:30;10.70;81.69
70154;DHT22;57519;51.494;-2.626;2023-02-15T11:12:33;10.80;81.56
70154;DHT22;57519;51.494;-2.626;2023-02-15T11:15:04;10.83;81.52
70154;DHT22;57519;51.494;-2.626;2023-02-15T11:17:40;10.77;81.66
70154;DHT22;57519;51.494;-2.626;2023-02-15T11:20:24;10.91;81.06
70154;DHT22;57519;51.494;-2.626;2023-02-15T11:22:53;11.12;80.57
70154;DHT22;57519;51.494;-2.626;2023-02-15T11:25:29;11.10;79.82
70154;DHT22;57519;51.494;-2.626;2023-02-15T11:27:55;11.17;80.60
70154;DHT22;57519;51.494;-2.626;2023-02-15T11:30:23;11.18;80.53
70154;DHT22;57519;51.494;-2.626;2023-02-15T11:32:55;11.28;80.28
70154;DHT22;57519;51.494;-2.626;2023-02-15T11:35:29;11.32;80.81
70154;DHT22;57519;51.494;-2.626;2023-02-15T11:40:30;11.55;80.11
70154;DHT22;57519;51.494;-2.626;2023-02-15T11:43:00;11.55;79.55
70154;DHT22;57519;51.494;-2.626;2023-02-15T11:45:30;11.72;78.69
70154;DHT22;57519;51.494;-2.626;2023-02-15T11:47:57;11.75;78.49
70154;DHT22;57519;51.494;-2.626;2023-02-15T11:50:25;11.76;79.17
70154;DHT22;57519;51.494;-2.626;2023-02-15T11:52:59;11.80;78.77
70154;DHT22;57519;51.494;-2.626;2023-02-15T11:55:26;11.89;78.60
70154;DHT22;57519;51.494;-2.626;2023-02-15T11:58:09;11.98;78.38
70154;DHT22;57519;51.494;-2.626;2023-02-15T12:00:45;12.07;78.05
70154;DHT22;57519;51.494;-2.626;2023-02-15T12:05:42;12.31;76.71
70154;DHT22;57519;51.494;-2.626;2023-02-15T12:08:15;12.40;76.54
70154;DHT22;57519;51.494;-2.626;2023-02-15T12:10:58;12.28;76.98
70154;DHT22;57519;51.494;-2.626;2023-02-15T12:13:26;12.17;77.63
70154;DHT22;57519;51.494;-2.626;2023-02-15T12:15:54;12.07;78.32
70154;DHT22;57519;51.494;-2.626;2023-02-15T12:21:31;12.37;78.66
70154;DHT22;57519;51.494;-2.626;2023-02-15T12:24:03;12.49;78.22
70154;DHT22;57519;51.494;-2.626;2023-02-15T12:26:35;12.66;77.16
70154;DHT22;57519;51.494;-2.626;2023-02-15T12:29:27;12.66;77.25
70154;DHT22;57519;51.494;-2.626;2023-02-15T12:32:46;12.82;76.46
70154;DHT22;57519;51.494;-2.626;2023-02-15T12:35:28;12.88;76.66
70154;DHT22;57519;51.494;-2.626;2023-02-15T12:40:37;12.82;76.44
70154;DHT22;57519;51.494;-2.626;2023-02-15T12:43:04;12.92;76.96
70154;DHT22;57519;51.494;-2.626;2023-02-15T12:45:36;12.93;76.63
70154;DHT22;57519;51.494;-2.626;2023-02-15T12:48:18;13.03;76.22
70154;DHT22;57519;51.494;-2.626;2023-02-15T12:50:51;13.09;76.38
70154;DHT22;57519;51.494;-2.626;2023-02-15T12:53:22;13.13;75.62
70154;DHT22;57519;51.494;-2.626;2023-02-15T12:56:18;13.31;75.39
70154;DHT22;57519;51.494;-2.626;2023-02-15T12:59:04;13.44;74.67
70154;DHT22;57519;51.494;-2.626;2023-02-15T13:01:32;13.82;74.71
70154;DHT22;57519;51.494;-2.626;2023-02-15T13:04:05;13.98;73.66
70154;DHT22;57519;51.494;-2.626;2023-02-15T13:06:33;14.19;73.41
70154;DHT22;57519;51.494;-2.626;2023-02-15T13:09:18;14.41;72.79
70154;DHT22;57519;51.494;-2.626;2023-02-15T13:11:45;14.48;71.76
70154;DHT22;57519;51.494;-2.626;2023-02-15T13:14:19;14.50;72.44
70154;DHT22;57519;51.494;-2.626;2023-02-15T13:16:48;14.22;72.83
70154;DHT22;57519;51.494;-2.626;2023-02-15T13:19:33;13.78;73.65
70154;DHT22;57519;51.494;-2.626;2023-02-15T13:22:05;13.74;73.94
70154;DHT22;57519;51.494;-2.626;2023-02-15T13:24:38;13.55;73.75
70154;DHT22;57519;51.494;-2.626;2023-02-15T13:27:04;13.43;74.48
70154;DHT22;57519;51.494;-2.626;2023-02-15T13:29:33;13.20;74.78
70154;DHT22;57519;51.494;-2.626;2023-02-15T13:32:30;12.93;75.36
70154;DHT22;57519;51.494;-2.626;2023-02-15T13:34:58;12.85;76.06
70154;DHT22;57519;51.494;-2.626;2023-02-15T13:40:15;12.83;76.25
70154;DHT22;57519;51.494;-2.626;2023-02-15T13:42:53;12.76;76.28
70154;DHT22;57519;51.494;-2.626;2023-02-15T13:48:14;12.65;76.90
70154;DHT22;57519;51.494;-2.626;2023-02-15T14:09:28;12.73;77.68
70154;DHT22;57519;51.494;-2.626;2023-02-15T14:12:21;12.56;77.98
70154;DHT22;57519;51.494;-2.626;2023-02-15T14:20:36;12.38;78.61
70154;DHT22;57519;51.494;-2.626;2023-02-15T14:26:10;12.27;79.43
70154;DHT22;57519;51.494;-2.626;2023-02-15T14:31:28;12.23;80.11
70154;DHT22;57519;51.494;-2.626;2023-02-15T14:33:56;12.28;80.28
70154;DHT22;57519;51.494;-2.626;2023-02-15T14:36:23;12.21;81.13
70154;DHT22;57519;51.494;-2.626;2023-02-15T14:39:31;12.00;82.68
70154;DHT22;57519;51.494;-2.626;2023-02-15T14:42:28;11.83;84.62
70154;DHT22;57519;51.494;-2.626;2023-02-15T14:47:43;11.45;87.63
70154;DHT22;57519;51.494;-2.626;2023-02-15T14:53:38;11.03;89.29
70154;DHT22;57519;51.494;-2.626;2023-02-15T14:58:38;10.80;90.81
70154;DHT22;57519;51.494;-2.626;2023-02-15T15:01:28;10.66;91.09
70154;DHT22;57519;51.494;-2.626;2023-02-15T15:03:58;10.56;91.49
70154;DHT22;57519;51.494;-2.626;2023-02-15T15:06:26;10.55;92.03
70154;DHT22;57519;51.494;-2.626;2023-02-15T15:08:55;10.49;91.95
70154;DHT22;57519;51.494;-2.626;2023-02-15T15:14:00;10.48;91.82
70154;DHT22;57519;51.494;-2.626;2023-02-15T15:16:28;10.45;91.71
70154;DHT22;57519;51.494;-2.626;2023-02-15T15:18:54;10.41;92.07
70154;DHT22;57519;51.494;-2.626;2023-02-15T15:33:06;10.09;92.51
70154;DHT22;57519;51.494;-2.626;2023-02-15T15:42:12;9.95;92.48
70154;DHT22;57519;51.494;-2.626;2023-02-15T15:50:19;9.51;92.16
70154;DHT22;57519;51.494;-2.626;2023-02-15T15:52:57;9.54;92.52
70154;DHT22;57519;51.494;-2.626;2023-02-15T15:55:26;9.46;92.45
70154;DHT22;57519;51.494;-2.626;2023-02-15T15:57:56;9.44;92.45
70154;DHT22;57519;51.494;-2.626;2023-02-15T16:00:41;9.44;92.41
70154;DHT22;57519;51.494;-2.626;2023-02-15T16:03:23;9.39;92.39
70154;DHT22;57519;51.494;-2.626;2023-02-15T16:05:49;9.29;92.40
70154;DHT22;57519;51.494;-2.626;2023-02-15T16:08:30;9.33;92.43
70154;DHT22;57519;51.494;-2.626;2023-02-15T16:10:57;9.32;92.42
70154;DHT22;57519;51.494;-2.626;2023-02-15T16:13:23;9.30;92.59
70154;DHT22;57519;51.494;-2.626;2023-02-15T16:15:53;9.35;92.63
70154;DHT22;57519;51.494;-2.626;2023-02-15T16:18:23;9.40;92.71
70154;DHT22;57519;51.494;-2.626;2023-02-15T16:21:00;9.43;92.59
70154;DHT22;57519;51.494;-2.626;2023-02-15T16:28:54;9.37;92.42
70154;DHT22;57519;51.494;-2.626;2023-02-15T16:31:21;9.35;92.62
70154;DHT22;57519;51.494;-2.626;2023-02-15T16:33:53;9.33;92.76
70154;DHT22;57519;51.494;-2.626;2023-02-15T16:36:25;9.23;92.64
70154;DHT22;57519;51.494;-2.626;2023-02-15T16:41:27;9.14;92.64
70154;DHT22;57519;51.494;-2.626;2023-02-15T16:43:55;9.18;92.42
70154;DHT22;57519;51.494;-2.626;2023-02-15T16:46:25;9.22;92.48
70154;DHT22;57519;51.494;-2.626;2023-02-15T16:48:52;9.22;92.12
70154;DHT22;57519;51.494;-2.626;2023-02-15T16:51:29;9.19;92.15
70154;DHT22;57519;51.494;-2.626;2023-02-15T16:53:56;9.15;92.21
70154;DHT22;57519;51.494;-2.626;2023-02-15T16:56:26;9.08;92.19
70154;DHT22;57519;51.494;-2.626;2023-02-15T16:58:54;8.95;92.17
70154;DHT22;57519;51.494;-2.626;2023-02-15T17:01:24;8.89;92.43
70154;DHT22;57519;51.494;-2.626;2023-02-15T17:09:26;8.65;92.84
70154;DHT22;57519;51.494;-2.626;2023-02-15T17:11:52;8.57;92.97
70154;DHT22;57519;51.494;-2.626;2023-02-15T17:14:26;8.53;92.93
70154;DHT22;57519;51.494;-2.626;2023-02-15T17:17:14;8.44;93.07
70154;DHT22;57519;51.494;-2.626;2023-02-15T17:19:52;8.36;93.09
70154;DHT22;57519;51.494;-2.626;2023-02-15T17:22:24;8.26;93.17
70154;DHT22;57519;51.494;-2.626;2023-02-15T17:24:58;8.17;93.27
70154;DHT22;57519;51.494;-2.626;2023-02-15T17:27:27;8.16;93.48
70154;DHT22;57519;51.494;-2.626;2023-02-15T17:29:58;8.07;93.54
70154;DHT22;57519;51.494;-2.626;2023-02-15T17:32:28;7.99;93.64
70154;DHT22;57519;51.494;-2.626;2023-02-15T17:35:07;7.91;93.76
70154;DHT22;57519;51.494;-2.626;2023-02-15T17:42:43;7.75;94.16
70154;DHT22;57519;51.494;-2.626;2023-02-15T17:45:08;7.70;94.22
70154;DHT22;57519;51.494;-2.626;2023-02-15T17:47:34;7.65;94.21
70154;DHT22;57519;51.494;-2.626;2023-02-15T17:50:05;7.60;94.28
70154;DHT22;57519;51.494;-2.626;2023-02-15T17:52:30;7.51;94.25
70154;DHT22;57519;51.494;-2.626;2023-02-15T17:54:56;7.43;94.25
70154;DHT22;57519;51.494;-2.626;2023-02-15T17:57:40;7.36;94.32
70154;DHT22;57519;51.494;-2.626;2023-02-15T18:00:06;7.33;94.47
70154;DHT22;57519;51.494;-2.626;2023-02-15T18:02:51;7.26;94.45
70154;DHT22;57519;51.494;-2.626;2023-02-15T18:05:35;7.13;94.36
70154;DHT22;57519;51.494;-2.626;2023-02-15T18:08:25;7.05;94.39
70154;DHT22;57519;51.494;-2.626;2023-02-15T18:11:10;6.91;94.36
70154;DHT22;57519;51.494;-2.626;2023-02-15T18:13:54;6.72;94.30
70154;DHT22;57519;51.494;-2.626;2023-02-15T18:16:24;6.54;94.28
70154;DHT22;57519;51.494;-2.626;2023-02-15T18:18:50;6.42;94.35
70154;DHT22;57519;51.494;-2.626;2023-02-15T18:21:16;6.33;94.44
70154;DHT22;57519;51.494;-2.626;2023-02-15T18:23:41;6.23;94.56
70154;DHT22;57519;51.494;-2.626;2023-02-15T18:26:17;6.16;94.56
70154;DHT22;57519;51.494;-2.626;2023-02-15T18:28:43;6.07;94.58
70154;DHT22;57519;51.494;-2.626;2023-02-15T18:31:09;6.02;94.70
70154;DHT22;57519;51.494;-2.626;2023-02-15T18:33:44;5.95;94.72
70154;DHT22;57519;51.494;-2.626;2023-02-15T18:36:32;5.88;94.74
70154;DHT22;57519;51.494;-2.626;2023-02-15T18:38:59;5.85;94.85
70154;DHT22;57519;51.494;-2.626;2023-02-15T18:41:25;5.73;94.86
70154;DHT22;57519;51.494;-2.626;2023-02-15T18:43:50;5.72;94.95
70154;DHT22;57519;51.494;-2.626;2023-02-15T18:46:18;5.65;94.97
70154;DHT22;57519;51.494;-2.626;2023-02-15T18:48:44;5.62;94.98
70154;DHT22;57519;51.494;-2.626;2023-02-15T18:51:19;5.50;94.96
70154;DHT22;57519;51.494;-2.626;2023-02-15T18:53:46;5.45;94.89